Time;durP1;ratioP1;P1;durP2;ratioP2;P2;SDS_P1;SDS_P2;PMS_P1;PMS_P2;Temp;Humidity;BMP_temperature;BMP_pressure;BME280_temperature;BME280_humidity;BME280_pressure;Samples;Min_cycle;Max_cycle;Signal;HPM_P1;HPM_P2
2022/01/01 00:01:25;;;;;;;43.75;28.30;;;10.80;99.90;;;;;;5093104;28;20100;-74
2022/01/01 00:03:51;;;;;;;52.47;31.30;;;10.80;99.90;;;;;;5093220;28;20395;-73
2022/01/01 00:06:17;;;;;;;51.13;29.35;;;10.80;99.90;;;;;;5093054;28;20035;-75
2022/01/01 00:08:42;;;;;;;47.05;26.02;;;10.80;99.90;;;;;;5092850;28;20043;-77
2022/01/01 00:11:08;;;;;;;56.25;27.73;;;10.70;99.90;;;;;;5092953;28;20044;-78
2022/01/01 00:13:33;;;;;;;46.67;26.45;;;10.70;99.90;;;;;;5093251;28;20047;-76
2022/01/01 00:15:59;;;;;;;48.75;26.15;;;10.70;99.90;;;;;;5092730;28;20036;-77
2022/01/01 00:18:25;;;;;;;48.80;23.55;;;10.60;99.90;;;;;;5093164;28;20051;-77
2022/01/01 00:20:50;;;;;;;41.53;23.70;;;10.60;99.90;;;;;;5111045;28;20043;-78
2022/01/01 00:23:16;;;;;;;44.10;22.05;;;10.50;99.90;;;;;;5092929;28;20042;-77
2022/01/01 00:25:41;;;;;;;47.95;24.88;;;10.50;99.90;;;;;;5076355;28;20479;-77
2022/01/01 00:28:07;;;;;;;40.65;24.33;;;10.40;99.90;;;;;;5076272;28;20051;-76
2022/01/01 00:30:32;;;;;;;51.88;25.92;;;10.40;99.90;;;;;;5075703;28;20082;-77
2022/01/01 00:32:58;;;;;;;48.55;25.10;;;10.40;99.90;;;;;;5067460;28;20050;-73
2022/01/01 00:35:24;;;;;;;53.85;26.40;;;10.30;99.90;;;;;;5077516;28;20058;-73
2022/01/01 00:37:49;;;;;;;49.53;25.70;;;10.30;99.90;;;;;;5081992;28;20071;-73
2022/01/01 00:40:15;;;;;;;50.00;27.20;;;10.40;99.90;;;;;;5092187;28;20077;-78
2022/01/01 00:42:40;;;;;;;57.28;31.05;;;10.30;99.90;;;;;;5075571;28;20058;-77
2022/01/01 00:45:06;;;;;;;61.03;32.08;;;10.30;99.90;;;;;;5093338;28;20035;-77
2022/01/01 00:47:32;;;;;;;60.58;35.53;;;10.30;99.90;;;;;;5092776;28;20127;-74
2022/01/01 00:49:58;;;;;;;64.47;39.13;;;10.40;99.90;;;;;;5091981;28;20100;-75
2022/01/01 00:52:23;;;;;;;65.22;40.80;;;10.40;99.90;;;;;;5092843;28;20048;-77
2022/01/01 00:54:49;;;;;;;70.82;43.13;;;10.50;99.90;;;;;;5110895;28;20392;-71
2022/01/01 00:57:14;;;;;;;69.65;43.60;;;10.50;99.90;;;;;;5089183;28;20067;-76
2022/01/01 00:59:40;;;;;;;73.75;45.00;;;10.50;99.90;;;;;;5081614;28;20043;-74
2022/01/01 01:02:05;;;;;;;80.13;46.20;;;10.60;99.90;;;;;;5092958;28;20450;-76
2022/01/01 01:04:31;;;;;;;71.90;45.05;;;10.50;99.90;;;;;;5092077;28;20407;-72
2022/01/01 01:06:57;;;;;;;78.70;46.55;;;10.60;99.90;;;;;;5091185;28;20054;-78
2022/01/01 01:09:22;;;;;;;63.90;44.22;;;10.60;99.90;;;;;;5108944;28;20118;-77
2022/01/01 01:11:51;;;;;;;68.20;45.70;;;10.60;99.90;;;;;;5092064;28;20044;-76
2022/01/01 01:14:23;;;;;;;70.97;46.00;;;10.60;99.90;;;;;;5110846;28;20067;-75
2022/01/01 01:16:50;;;;;;;66.38;42.60;;;10.60;99.90;;;;;;5092849;28;20039;-77
2022/01/01 01:19:17;;;;;;;73.18;46.10;;;10.60;99.90;;;;;;5092190;28;20050;-78
2022/01/01 01:21:44;;;;;;;71.85;43.28;;;10.50;99.90;;;;;;5092529;28;20052;-77
2022/01/01 01:24:10;;;;;;;69.63;42.80;;;10.50;99.90;;;;;;5092961;28;20459;-77
2022/01/01 01:26:35;;;;;;;63.75;42.10;;;10.50;99.90;;;;;;5075719;28;20365;-78
2022/01/01 01:29:03;;;;;;;69.97;42.53;;;10.50;99.90;;;;;;5092518;28;20073;-78
2022/01/01 01:31:30;;;;;;;64.50;41.13;;;10.60;99.90;;;;;;5092129;28;20040;-77
2022/01/01 01:33:55;;;;;;;61.58;41.50;;;10.60;99.90;;;;;;5091674;28;20050;-77
2022/01/01 01:36:21;;;;;;;69.47;42.22;;;10.60;99.90;;;;;;5092704;28;20480;-74
2022/01/01 01:38:47;;;;;;;72.50;41.15;;;10.60;99.90;;;;;;5090138;28;20448;-77
2022/01/01 01:41:12;;;;;;;61.15;37.88;;;10.60;99.90;;;;;;5110903;28;20079;-78
2022/01/01 01:43:38;;;;;;;63.60;38.75;;;10.70;99.90;;;;;;5092348;28;20048;-78
2022/01/01 01:46:05;;;;;;;64.93;39.72;;;10.70;99.90;;;;;;5091915;28;20058;-77
2022/01/01 01:48:33;;;;;;;67.75;39.10;;;10.60;99.90;;;;;;5092091;28;20077;-75
2022/01/01 01:51:00;;;;;;;64.93;38.78;;;10.60;99.90;;;;;;5092017;28;20052;-75
2022/01/01 01:53:27;;;;;;;68.18;39.17;;;10.70;99.90;;;;;;5091535;28;20059;-78
2022/01/01 01:55:54;;;;;;;69.88;39.05;;;10.70;99.90;;;;;;5076177;28;20043;-78
2022/01/01 01:58:20;;;;;;;62.25;40.15;;;10.70;99.90;;;;;;5079256;28;20050;-77
2022/01/01 02:03:11;;;;;;;62.88;39.45;;;10.70;99.90;;;;;;5114506;28;20043;-77
2022/01/01 02:05:39;;;;;;;65.38;40.25;;;10.70;99.90;;;;;;5114219;28;20052;-75
2022/01/01 02:08:06;;;;;;;64.15;41.72;;;10.70;99.90;;;;;;5094328;28;20065;-72
2022/01/01 02:10:33;;;;;;;70.97;44.10;;;10.70;99.90;;;;;;5113790;28;20739;-76
2022/01/01 02:13:05;;;;;;;67.65;44.30;;;10.70;99.90;;;;;;5095537;28;20108;-77
2022/01/01 02:15:59;;;;;;;73.40;46.03;;;10.70;99.90;;;;;;5094431;28;20058;-77
2022/01/01 02:18:25;;;;;;;75.63;45.72;;;10.70;99.90;;;;;;5095195;28;20047;-77
2022/01/01 02:20:51;;;;;;;72.05;49.13;;;10.70;99.90;;;;;;5095794;28;20051;-77
2022/01/01 02:23:18;;;;;;;76.88;49.17;;;10.70;99.90;;;;;;5094898;28;20048;-78
2022/01/01 02:25:44;;;;;;;80.82;51.08;;;10.70;99.90;;;;;;5113721;28;20510;-77
2022/01/01 02:28:11;;;;;;;68.53;50.03;;;10.70;99.90;;;;;;5094506;28;20083;-76
2022/01/01 02:30:37;;;;;;;83.40;52.70;;;10.70;99.90;;;;;;5095733;28;20499;-78
2022/01/01 02:33:03;;;;;;;82.60;56.72;;;10.80;99.90;;;;;;5095111;28;20118;-77
2022/01/01 02:35:29;;;;;;;80.72;56.65;;;10.70;99.90;;;;;;5072469;28;20044;-78
2022/01/01 02:37:54;;;;;;;85.45;58.70;;;10.70;99.90;;;;;;5105025;28;20039;-78
2022/01/01 02:40:20;;;;;;;93.95;62.05;;;10.70;99.90;;;;;;5083360;28;20098;-74
2022/01/01 02:42:46;;;;;;;88.63;62.25;;;10.70;99.90;;;;;;5067204;28;20066;-74
2022/01/01 02:45:13;;;;;;;95.95;67.35;;;10.70;99.90;;;;;;5094956;28;20108;-77
2022/01/01 02:47:40;;;;;;;90.15;63.15;;;10.60;99.90;;;;;;5094778;28;20043;-76
2022/01/01 02:50:07;;;;;;;96.25;68.30;;;10.60;99.90;;;;;;5077217;28;20059;-76
2022/01/01 02:52:33;;;;;;;107.43;69.80;;;10.60;99.90;;;;;;5094973;28;20406;-76
2022/01/01 02:54:58;;;;;;;94.82;68.18;;;10.50;99.90;;;;;;5094377;28;20051;-76
2022/01/01 02:57:24;;;;;;;102.68;69.50;;;10.50;99.90;;;;;;5094276;28;20040;-75
2022/01/01 02:59:50;;;;;;;104.80;73.18;;;10.40;99.90;;;;;;5094442;28;20043;-75
2022/01/01 03:02:16;;;;;;;107.72;74.20;;;10.40;99.90;;;;;;5078027;28;20046;-75
2022/01/01 03:04:41;;;;;;;110.80;72.82;;;10.40;99.90;;;;;;5094004;28;20084;-76
2022/01/01 03:07:07;;;;;;;108.78;73.75;;;10.40;99.90;;;;;;5086436;28;20044;-76
2022/01/01 03:09:34;;;;;;;97.93;74.05;;;10.50;99.90;;;;;;5063599;28;20126;-76
2022/01/01 03:12:04;;;;;;;97.38;69.93;;;10.50;99.90;;;;;;5077230;28;20047;-75
2022/01/01 03:14:30;;;;;;;95.03;72.28;;;10.50;99.90;;;;;;5077386;28;20082;-75
2022/01/01 03:16:56;;;;;;;101.00;72.82;;;10.50;99.90;;;;;;5094434;28;20483;-76
2022/01/01 03:19:22;;;;;;;107.25;73.22;;;10.50;99.90;;;;;;5093987;28;20044;-77
2022/01/01 03:21:47;;;;;;;106.05;75.13;;;10.50;99.90;;;;;;5094414;28;20044;-76
2022/01/01 03:24:14;;;;;;;108.88;75.78;;;10.50;99.90;;;;;;5094049;28;20040;-77
2022/01/01 03:26:40;;;;;;;112.97;77.85;;;10.50;99.90;;;;;;5093668;28;20036;-76
2022/01/01 03:29:06;;;;;;;105.38;74.07;;;10.50;99.90;;;;;;5094299;28;20048;-76
2022/01/01 03:31:31;;;;;;;110.82;77.80;;;10.60;99.90;;;;;;5093302;28;20093;-77
2022/01/01 03:33:58;;;;;;;105.88;73.05;;;10.60;99.90;;;;;;5093929;28;20055;-76
2022/01/01 03:36:25;;;;;;;103.32;74.00;;;10.60;99.90;;;;;;5093366;28;20093;-74
2022/01/01 03:38:51;;;;;;;103.95;74.18;;;10.60;99.90;;;;;;5093340;28;20069;-77
2022/01/01 03:41:17;;;;;;;100.40;71.35;;;10.60;99.90;;;;;;5094032;28;20092;-76
2022/01/01 03:43:43;;;;;;;97.50;69.95;;;10.70;99.90;;;;;;5093540;28;20082;-77
2022/01/01 03:46:09;;;;;;;98.90;70.57;;;10.70;99.90;;;;;;5094130;28;20043;-74
2022/01/01 03:48:37;;;;;;;102.88;72.80;;;10.80;99.90;;;;;;5112095;28;20063;-76
2022/01/01 03:51:03;;;;;;;98.30;73.03;;;10.80;99.90;;;;;;5093680;28;20049;-75
2022/01/01 03:53:29;;;;;;;99.00;71.93;;;10.70;99.90;;;;;;5089655;28;20093;-76
2022/01/01 03:55:54;;;;;;;101.40;72.50;;;10.70;99.90;;;;;;5057267;28;20036;-77
2022/01/01 03:58:20;;;;;;;111.68;76.50;;;10.80;99.90;;;;;;5101290;28;20566;-73
2022/01/01 04:00:46;;;;;;;98.07;74.53;;;10.80;99.90;;;;;;5093195;28;20043;-75
2022/01/01 04:03:14;;;;;;;100.00;73.47;;;10.80;99.90;;;;;;5093533;28;20039;-77
2022/01/01 04:05:40;;;;;;;100.78;74.15;;;10.70;99.90;;;;;;5092021;28;20109;-76
2022/01/01 04:08:07;;;;;;;106.82;75.60;;;10.80;99.90;;;;;;5092912;28;20484;-77
2022/01/01 04:10:33;;;;;;;102.22;71.57;;;10.80;99.90;;;;;;5093434;28;20047;-75
2022/01/01 04:13:00;;;;;;;105.38;71.55;;;10.80;99.90;;;;;;5076326;28;20039;-76
2022/01/01 04:15:30;;;;;;;105.32;72.63;;;10.80;99.90;;;;;;5075864;28;20047;-77
2022/01/01 04:17:58;;;;;;;93.03;68.97;;;10.80;99.90;;;;;;5073148;28;20111;-75
2022/01/01 04:20:24;;;;;;;94.45;70.78;;;10.80;99.90;;;;;;5102911;28;20126;-77
2022/01/01 04:22:54;;;;;;;99.55;69.95;;;10.90;99.90;;;;;;5075878;28;20075;-77
2022/01/01 04:25:21;;;;;;;94.53;68.38;;;10.90;99.90;;;;;;5092897;28;20035;-78
2022/01/01 04:27:48;;;;;;;101.38;70.10;;;10.90;99.90;;;;;;5092940;28;20643;-77
2022/01/01 04:30:14;;;;;;;100.88;69.00;;;11.00;99.90;;;;;;5093167;28;20048;-76
2022/01/01 04:32:40;;;;;;;93.30;65.13;;;10.90;99.90;;;;;;5093011;28;20047;-77
2022/01/01 04:35:06;;;;;;;91.35;65.80;;;10.90;99.90;;;;;;5092983;28;20059;-76
2022/01/01 04:37:33;;;;;;;97.68;66.13;;;10.90;99.90;;;;;;5091702;28;20047;-76
2022/01/01 04:39:59;;;;;;;89.45;65.43;;;10.90;99.90;;;;;;5093598;28;20466;-76
2022/01/01 04:42:29;;;;;;;90.55;63.00;;;10.90;99.90;;;;;;5075395;28;20078;-75
2022/01/01 04:44:54;;;;;;;99.05;67.18;;;10.90;99.90;;;;;;5093228;28;20146;-75
2022/01/01 04:47:20;;;;;;;94.00;63.92;;;10.90;99.90;;;;;;5072622;28;20547;-76
2022/01/01 04:49:46;;;;;;;91.43;62.05;;;10.90;99.90;;;;;;5090110;28;20048;-77
2022/01/01 04:52:11;;;;;;;95.32;61.67;;;11.00;99.90;;;;;;5082231;28;20071;-77
2022/01/01 04:54:41;;;;;;;96.95;62.38;;;11.00;99.90;;;;;;5092452;28;20405;-76
2022/01/01 04:57:07;;;;;;;88.05;55.63;;;11.00;99.90;;;;;;5075859;28;20024;-76
2022/01/01 04:59:34;;;;;;;91.18;57.20;;;11.00;99.90;;;;;;5076165;28;20147;-76
2022/01/01 05:02:00;;;;;;;82.85;52.55;;;11.00;99.90;;;;;;5092803;28;20035;-76
2022/01/01 05:04:26;;;;;;;86.05;54.65;;;11.00;99.90;;;;;;5092203;28;20400;-76
2022/01/01 05:06:52;;;;;;;86.90;51.90;;;11.00;99.90;;;;;;5085180;28;20040;-75
2022/01/01 05:09:18;;;;;;;74.78;46.30;;;11.00;99.90;;;;;;5093041;28;20085;-76
2022/01/01 05:11:44;;;;;;;76.38;46.75;;;11.00;99.90;;;;;;5088415;28;20042;-76
2022/01/01 05:14:10;;;;;;;79.82;45.13;;;11.10;99.90;;;;;;5095127;28;20394;-76
2022/01/01 05:16:36;;;;;;;71.63;44.00;;;11.10;99.90;;;;;;5092452;28;20040;-74
2022/01/01 05:19:02;;;;;;;75.43;42.88;;;11.10;99.90;;;;;;5092340;28;20084;-73
2022/01/01 05:21:31;;;;;;;71.20;39.05;;;11.10;99.90;;;;;;5092292;28;20051;-77
2022/01/01 05:23:57;;;;;;;70.32;38.80;;;11.10;99.90;;;;;;5092160;28;20044;-78
2022/01/01 05:26:23;;;;;;;66.40;36.88;;;11.10;99.90;;;;;;5075675;28;20559;-76
2022/01/01 05:28:49;;;;;;;66.85;36.15;;;11.10;99.90;;;;;;5092660;28;20079;-77
2022/01/01 05:31:17;;;;;;;56.30;33.35;;;11.10;99.90;;;;;;5093785;28;20126;-77
2022/01/01 05:33:42;;;;;;;67.35;38.20;;;11.10;99.90;;;;;;5079301;28;20052;-78
2022/01/01 05:36:08;;;;;;;73.28;38.88;;;11.10;99.90;;;;;;5080332;28;20050;-78
2022/01/01 05:38:33;;;;;;;64.45;35.10;;;11.10;99.90;;;;;;5092930;28;20130;-72
2022/01/01 05:40:59;;;;;;;64.10;33.47;;;11.10;99.90;;;;;;5092614;28;20086;-76
2022/01/01 05:43:25;;;;;;;64.10;35.53;;;11.20;99.90;;;;;;5079914;28;20455;-75
2022/01/01 05:45:50;;;;;;;62.03;34.88;;;11.30;99.90;;;;;;5110453;28;20036;-74
2022/01/01 05:48:16;;;;;;;65.13;34.08;;;11.20;99.90;;;;;;5079129;28;20081;-74
2022/01/01 05:50:42;;;;;;;59.85;33.50;;;11.20;99.90;;;;;;5096039;28;20460;-74
2022/01/01 05:53:07;;;;;;;72.15;34.25;;;11.20;99.90;;;;;;5095711;28;20473;-73
2022/01/01 05:55:33;;;;;;;55.45;31.90;;;11.20;99.90;;;;;;5078726;28;20058;-75
2022/01/01 05:57:59;;;;;;;58.35;31.00;;;11.20;99.90;;;;;;5096006;28;20040;-75
2022/01/01 06:00:25;;;;;;;58.22;29.63;;;11.20;99.90;;;;;;5094639;28;20047;-75
2022/01/01 06:02:50;;;;;;;58.58;31.17;;;11.20;99.90;;;;;;5093302;28;20491;-73
2022/01/01 06:05:17;;;;;;;54.40;28.02;;;11.30;99.90;;;;;;5076287;28;20032;-76
2022/01/01 06:07:43;;;;;;;51.05;28.05;;;11.20;99.90;;;;;;5091711;28;20048;-73
2022/01/01 06:10:08;;;;;;;55.53;28.55;;;11.20;99.90;;;;;;5105596;28;20043;-76
2022/01/01 06:12:38;;;;;;;49.78;25.17;;;11.30;99.90;;;;;;5079033;28;20065;-75
2022/01/01 06:15:04;;;;;;;55.03;27.15;;;11.30;99.90;;;;;;5095189;28;20111;-74
2022/01/01 06:17:29;;;;;;;49.83;26.92;;;11.30;99.90;;;;;;5078819;28;20126;-75
2022/01/01 06:19:55;;;;;;;50.00;26.17;;;11.30;99.90;;;;;;5095644;28;20549;-75
2022/01/01 06:22:20;;;;;;;55.38;26.83;;;11.20;99.90;;;;;;5094993;28;20050;-71
2022/01/01 06:24:46;;;;;;;51.47;24.75;;;11.30;99.90;;;;;;5092377;28;20047;-70
2022/01/01 06:27:13;;;;;;;50.95;25.27;;;11.30;99.90;;;;;;5074881;28;20590;-74
2022/01/01 06:29:39;;;;;;;52.25;24.30;;;11.30;99.90;;;;;;5094319;28;20183;-74
2022/01/01 06:32:04;;;;;;;54.92;24.63;;;11.30;99.90;;;;;;5079344;28;20028;-73
2022/01/01 06:34:30;;;;;;;48.42;23.08;;;11.30;99.90;;;;;;5112490;28;20560;-75
2022/01/01 06:36:56;;;;;;;44.60;23.73;;;11.30;99.90;;;;;;5097465;28;20047;-73
2022/01/01 06:39:21;;;;;;;52.78;23.98;;;11.30;99.90;;;;;;5095464;28;20085;-71
2022/01/01 06:41:47;;;;;;;41.58;23.60;;;11.30;99.90;;;;;;5094136;28;20040;-73
2022/01/01 06:44:12;;;;;;;42.78;23.88;;;11.40;99.90;;;;;;5095307;28;20047;-75
2022/01/01 06:46:38;;;;;;;49.53;23.58;;;11.40;99.90;;;;;;5095395;28;20484;-75
2022/01/01 06:49:03;;;;;;;47.92;25.25;;;11.40;99.90;;;;;;5092926;28;20043;-75
2022/01/01 06:51:32;;;;;;;39.70;23.13;;;11.40;99.90;;;;;;5078125;28;20048;-75
2022/01/01 06:53:58;;;;;;;53.15;22.55;;;11.40;99.90;;;;;;5095098;28;20112;-75
2022/01/01 06:56:23;;;;;;;44.00;23.27;;;11.40;99.90;;;;;;5094214;28;20441;-75
2022/01/01 06:58:49;;;;;;;46.83;22.35;;;11.40;99.90;;;;;;5094215;28;20096;-76
2022/01/01 07:01:14;;;;;;;41.33;23.95;;;11.40;99.90;;;;;;5078121;28;20048;-76
2022/01/01 07:03:40;;;;;;;44.60;23.15;;;11.40;99.90;;;;;;5093842;28;20035;-75
2022/01/01 07:06:06;;;;;;;49.10;23.20;;;11.40;99.90;;;;;;5089509;28;20078;-75
2022/01/01 07:08:31;;;;;;;45.70;22.50;;;11.40;99.90;;;;;;5083986;28;20051;-75
2022/01/01 07:10:57;;;;;;;41.85;22.95;;;11.40;99.90;;;;;;5111582;28;20048;-72
2022/01/01 07:13:22;;;;;;;45.30;23.10;;;11.40;99.90;;;;;;5112555;28;20126;-73
2022/01/01 07:15:48;;;;;;;38.92;23.05;;;11.40;99.90;;;;;;5094651;28;20407;-75
2022/01/01 07:18:14;;;;;;;41.45;22.83;;;11.40;99.90;;;;;;5097930;28;20044;-76
2022/01/01 07:20:39;;;;;;;42.13;22.63;;;11.40;99.90;;;;;;5074778;28;20048;-75
2022/01/01 07:23:05;;;;;;;52.17;24.85;;;11.50;99.90;;;;;;5086495;28;20046;-75
2022/01/01 07:25:31;;;;;;;49.72;25.38;;;11.40;99.90;;;;;;5093777;28;20054;-75
2022/01/01 07:27:56;;;;;;;43.65;24.00;;;11.50;99.90;;;;;;5093840;28;20049;-75
2022/01/01 07:30:22;;;;;;;46.15;25.10;;;11.50;99.90;;;;;;5094490;28;20044;-76
2022/01/01 07:32:48;;;;;;;46.70;27.25;;;11.50;99.90;;;;;;5093598;28;20047;-76
2022/01/01 07:35:16;;;;;;;45.92;26.52;;;11.50;99.90;;;;;;5076352;28;20051;-75
2022/01/01 07:37:42;;;;;;;42.03;26.08;;;11.50;99.90;;;;;;5093574;28;20400;-76
2022/01/01 07:40:11;;;;;;;52.53;27.02;;;11.50;99.90;;;;;;5077152;28;20035;-78
2022/01/01 07:42:37;;;;;;;44.85;27.80;;;11.50;99.90;;;;;;5094984;28;20636;-78
2022/01/01 07:45:04;;;;;;;52.22;28.75;;;11.50;99.90;;;;;;5076375;28;20086;-76
2022/01/01 07:47:29;;;;;;;50.10;27.38;;;11.50;99.90;;;;;;5077061;28;20143;-76
2022/01/01 07:49:55;;;;;;;49.33;27.50;;;11.60;99.90;;;;;;5093571;28;20476;-76
2022/01/01 07:52:21;;;;;;;41.60;27.45;;;11.60;99.90;;;;;;5093094;28;20108;-78
2022/01/01 07:54:46;;;;;;;47.35;27.35;;;11.60;99.90;;;;;;5075434;28;20058;-75
2022/01/01 07:57:12;;;;;;;44.65;28.23;;;11.60;99.90;;;;;;5111873;28;20134;-76
2022/01/01 07:59:37;;;;;;;48.33;27.75;;;11.60;99.90;;;;;;5093419;28;20054;-75
2022/01/01 08:02:03;;;;;;;45.72;28.10;;;11.70;99.90;;;;;;5093061;28;20047;-76
2022/01/01 08:04:29;;;;;;;38.53;28.15;;;11.70;99.90;;;;;;5111209;28;20434;-73
2022/01/01 08:06:54;;;;;;;47.10;28.20;;;11.70;99.90;;;;;;5092045;28;20124;-74
2022/01/01 08:09:20;;;;;;;45.00;28.80;;;11.70;99.90;;;;;;5093517;28;20051;-71
2022/01/01 08:11:46;;;;;;;45.35;28.17;;;11.80;99.90;;;;;;5076411;28;20035;-70
2022/01/01 08:14:12;;;;;;;41.53;27.77;;;11.80;99.90;;;;;;5092209;28;20047;-71
2022/01/01 08:16:59;;;;;;;42.40;27.90;;;11.80;99.90;;;;;;5093705;28;20086;-73
2022/01/01 08:19:26;;;;;;;46.35;26.13;;;11.80;99.90;;;;;;5089164;28;20091;-76
2022/01/01 08:21:52;;;;;;;43.72;27.90;;;11.90;99.90;;;;;;5075706;28;20052;-75
2022/01/01 08:24:17;;;;;;;39.88;26.35;;;11.90;99.90;;;;;;5093110;28;20055;-74
2022/01/01 08:26:43;;;;;;;41.20;25.85;;;11.90;99.90;;;;;;5089763;28;20044;-74
2022/01/01 08:29:09;;;;;;;41.45;25.17;;;11.90;99.90;;;;;;5076387;28;20040;-75
2022/01/01 08:31:35;;;;;;;35.60;22.80;;;12.00;99.90;;;;;;5111581;28;20047;-75
2022/01/01 08:34:00;;;;;;;31.77;23.30;;;12.00;99.90;;;;;;5092115;28;20724;-74
2022/01/01 08:36:26;;;;;;;39.78;24.02;;;12.00;99.90;;;;;;5074036;28;20048;-74
2022/01/01 08:38:52;;;;;;;37.47;22.40;;;12.00;99.90;;;;;;5082489;28;20043;-73
2022/01/01 08:41:17;;;;;;;41.45;23.40;;;12.00;99.90;;;;;;5092221;28;20036;-74
2022/01/01 08:43:43;;;;;;;40.28;22.90;;;12.10;99.90;;;;;;5092035;28;20047;-74
2022/01/01 08:46:08;;;;;;;34.90;22.15;;;12.10;99.90;;;;;;5092775;28;20042;-74
2022/01/01 08:48:34;;;;;;;36.03;22.88;;;12.10;99.90;;;;;;5083199;28;20108;-75
2022/01/01 08:51:17;;;;;;;37.13;21.67;;;12.10;99.90;;;;;;5066473;28;20134;-75
2022/01/01 08:53:44;;;;;;;34.47;21.52;;;12.20;99.90;;;;;;5054837;28;20087;-75
2022/01/01 08:56:10;;;;;;;31.45;20.42;;;12.10;99.90;;;;;;5071576;28;20032;-75
2022/01/01 08:58:37;;;;;;;36.67;20.45;;;12.10;99.90;;;;;;5071838;28;20036;-75
2022/01/01 09:01:03;;;;;;;33.63;20.02;;;12.10;99.90;;;;;;5054564;28;20488;-76
2022/01/01 09:03:30;;;;;;;30.55;19.75;;;12.10;99.90;;;;;;5072233;28;20044;-75
2022/01/01 09:05:55;;;;;;;32.08;20.05;;;12.10;99.90;;;;;;5056156;28;20496;-75
2022/01/01 09:08:21;;;;;;;31.08;19.60;;;12.10;99.90;;;;;;5056886;28;20043;-75
2022/01/01 09:10:47;;;;;;;33.75;18.42;;;12.20;99.90;;;;;;5053683;28;20066;-75
2022/01/01 09:13:12;;;;;;;28.00;19.83;;;12.20;99.90;;;;;;5077089;28;20044;-77
2022/01/01 09:15:38;;;;;;;28.80;17.98;;;12.20;99.90;;;;;;5075980;28;20040;-74
2022/01/01 09:18:04;;;;;;;32.40;17.02;;;12.30;99.90;;;;;;5076394;28;20102;-75
2022/01/01 09:20:29;;;;;;;23.90;16.08;;;12.30;99.90;;;;;;5073989;28;20078;-73
2022/01/01 09:22:55;;;;;;;24.23;16.75;;;12.40;99.90;;;;;;5075747;28;20040;-75
2022/01/01 09:25:20;;;;;;;28.98;16.00;;;12.40;99.90;;;;;;5075542;28;20036;-74
2022/01/01 09:27:46;;;;;;;25.10;15.35;;;12.50;99.90;;;;;;5058806;28;20063;-75
2022/01/01 09:30:12;;;;;;;20.42;14.90;;;12.50;99.90;;;;;;5058865;28;20044;-79
2022/01/01 09:32:38;;;;;;;19.35;13.63;;;12.50;99.90;;;;;;5075809;28;20076;-75
2022/01/01 09:35:05;;;;;;;21.83;13.57;;;12.50;99.90;;;;;;5094833;28;20072;-75
2022/01/01 09:37:32;;;;;;;25.08;13.70;;;12.60;99.90;;;;;;5057373;28;20101;-75
2022/01/01 09:39:59;;;;;;;17.17;11.68;;;12.60;99.90;;;;;;5076007;28;20138;-74
2022/01/01 09:42:24;;;;;;;18.92;11.75;;;12.70;99.90;;;;;;5058033;28;20138;-74
2022/01/01 09:44:53;;;;;;;16.42;10.68;;;12.70;99.90;;;;;;5074905;28;20519;-74
2022/01/01 09:47:20;;;;;;;20.40;11.23;;;12.70;99.90;;;;;;5057846;28;20039;-75
2022/01/01 09:49:45;;;;;;;14.93;10.50;;;12.70;99.90;;;;;;5070031;28;20404;-73
2022/01/01 09:52:14;;;;;;;18.88;10.95;;;12.80;99.90;;;;;;5054660;28;20041;-75
2022/01/01 09:54:41;;;;;;;18.50;10.93;;;12.80;99.90;;;;;;5055374;28;20407;-74
2022/01/01 09:57:06;;;;;;;18.38;11.00;;;12.70;99.90;;;;;;5073002;28;20059;-74
2022/01/01 09:59:32;;;;;;;18.10;10.68;;;12.70;99.90;;;;;;5073759;28;20576;-75
2022/01/01 10:01:58;;;;;;;19.38;11.55;;;12.70;99.90;;;;;;5093269;28;20573;-75
2022/01/01 10:04:24;;;;;;;18.67;12.10;;;12.70;99.90;;;;;;5059093;28;20032;-75
2022/01/01 10:07:04;;;;;;;20.05;11.75;;;12.70;99.90;;;;;;5074988;28;20377;-75
2022/01/01 10:09:32;;;;;;;18.52;11.65;;;12.70;99.90;;;;;;5075672;28;20496;-75
2022/01/01 10:11:58;;;;;;;17.85;11.27;;;12.60;99.90;;;;;;5075393;28;20052;-74
2022/01/01 10:14:34;;;;;;;16.05;11.30;;;12.60;99.90;;;;;;5075137;28;20048;-75
2022/01/01 10:17:00;;;;;;;18.30;11.68;;;12.60;99.90;;;;;;5074342;28;20040;-74
2022/01/01 10:19:32;;;;;;;21.55;11.82;;;12.60;99.90;;;;;;5073396;28;20436;-75
2022/01/01 10:22:02;;;;;;;;;;;12.60;99.90;;;;;;5075148;28;20523;-74
2022/01/01 10:27:42;;;;;;;17.45;11.02;;;12.60;99.90;;;;;;5074969;28;19931;-74
2022/01/01 10:29:57;;;;;;;17.40;10.95;;;12.60;99.90;;;;;;5065693;28;20051;-74
2022/01/01 10:32:24;;;;;;;17.50;10.55;;;12.50;99.90;;;;;;5074378;28;20048;-74
2022/01/01 10:34:50;;;;;;;16.90;9.70;;;12.60;99.90;;;;;;5075346;28;20067;-74
2022/01/01 10:37:16;;;;;;;18.50;9.55;;;12.50;99.90;;;;;;5058004;28;20488;-74
2022/01/01 10:39:49;;;;;;;12.95;9.48;;;12.60;99.90;;;;;;5058148;28;20036;-75
2022/01/01 10:42:14;;;;;;;14.35;8.55;;;12.60;99.90;;;;;;5075019;28;20032;-75
2022/01/01 10:44:46;;;;;;;12.93;8.40;;;12.50;99.90;;;;;;5075208;28;20549;-75
2022/01/01 10:47:20;;;;;;;14.38;7.95;;;12.50;99.90;;;;;;5057623;28;20039;-75
2022/01/01 10:52:13;;;;;;;13.68;7.10;;;12.50;99.90;;;;;;5074467;28;20056;-75
2022/01/01 10:54:48;;;;;;;12.60;6.80;;;12.60;99.90;;;;;;5072877;28;20067;-75
2022/01/01 10:57:41;;;;;;;14.25;6.95;;;12.60;99.90;;;;;;5054618;28;20489;-75
2022/01/01 11:00:17;;;;;;;15.85;6.53;;;12.60;99.90;;;;;;5057339;28;20080;-75
2022/01/01 11:02:58;;;;;;;17.65;7.32;;;12.60;99.90;;;;;;5074735;28;20044;-76
2022/01/01 11:05:28;;;;;;;15.90;7.45;;;12.60;99.90;;;;;;5057630;28;20040;-76
2022/01/01 11:07:54;;;;;;;10.82;6.25;;;12.60;99.90;;;;;;5057298;28;20040;-76
2022/01/01 11:10:21;;;;;;;12.38;5.57;;;12.60;99.90;;;;;;5092212;28;20119;-76
2022/01/01 11:12:48;;;;;;;11.73;5.65;;;12.70;99.90;;;;;;5058236;28;20044;-76
2022/01/01 11:15:15;;;;;;;14.63;6.53;;;12.70;99.90;;;;;;5056519;28;20135;-75
2022/01/01 11:17:46;;;;;;;12.35;5.13;;;12.70;99.90;;;;;;5073295;28;20036;-76
2022/01/01 11:20:12;;;;;;;11.95;4.97;;;12.70;99.90;;;;;;5073845;28;20052;-76
2022/01/01 11:22:38;;;;;;;10.10;5.25;;;12.80;99.90;;;;;;5058031;28;20043;-76
2022/01/01 11:25:04;;;;;;;11.13;5.60;;;12.80;99.90;;;;;;5057697;28;20047;-76
2022/01/01 11:27:31;;;;;;;10.05;4.65;;;12.90;99.90;;;;;;5073479;28;20086;-76
2022/01/01 11:29:59;;;;;;;11.32;5.40;;;12.90;99.90;;;;;;5072782;28;20113;-75
2022/01/01 11:32:39;;;;;;;9.40;4.55;;;13.00;99.90;;;;;;5073855;28;20526;-76
2022/01/01 11:35:09;;;;;;;11.35;5.00;;;13.00;99.90;;;;;;5073679;28;20048;-77
2022/01/01 11:38:00;;;;;;;9.63;4.90;;;13.10;99.90;;;;;;5070322;28;20040;-76
2022/01/01 11:40:31;;;;;;;10.73;4.47;;;13.20;99.90;;;;;;5066918;28;20134;-74
2022/01/01 11:42:57;;;;;;;8.98;4.45;;;13.30;99.90;;;;;;5056492;28;20062;-75
2022/01/01 11:45:42;;;;;;;10.68;5.20;;;13.30;99.90;;;;;;5073130;28;20059;-75
2022/01/01 11:48:43;;;;;;;8.90;4.50;;;13.40;99.90;;;;;;5056628;28;20056;-76
2022/01/01 11:51:22;;;;;;;9.55;4.68;;;13.40;99.90;;;;;;5071438;28;20048;-76
2022/01/01 11:54:24;;;;;;;10.00;4.55;;;13.50;99.90;;;;;;5073404;28;20435;-76
2022/01/01 11:56:50;;;;;;;11.07;4.57;;;13.50;99.90;;;;;;5048934;28;20527;-75
2022/01/01 11:59:29;;;;;;;10.93;5.20;;;13.40;99.90;;;;;;5072392;28;20036;-75
2022/01/01 12:02:05;;;;;;;11.80;5.13;;;13.50;99.90;;;;;;5056393;28;20055;-75
2022/01/01 12:04:45;;;;;;;10.65;5.07;;;13.40;99.90;;;;;;5055921;28;20133;-75
2022/01/01 12:07:20;;;;;;;10.55;5.35;;;13.40;99.90;;;;;;5073007;28;20177;-75
2022/01/01 12:09:58;;;;;;;15.20;5.45;;;13.40;99.90;;;;;;5064717;28;20089;-75
2022/01/01 12:12:39;;;;;;;11.18;5.82;;;13.30;99.90;;;;;;5069014;28;20087;-76
2022/01/01 12:15:28;;;;;;;12.43;6.13;;;13.40;99.90;;;;;;5072594;28;20044;-76
2022/01/01 12:18:04;;;;;;;15.18;5.75;;;13.30;99.90;;;;;;5044367;28;20409;-76
2022/01/01 12:20:34;;;;;;;8.00;4.55;;;13.30;99.90;;;;;;5053160;28;20052;-75
2022/01/01 12:23:09;;;;;;;10.38;5.18;;;13.30;99.90;;;;;;5073366;28;20055;-76
2022/01/01 12:25:36;;;;;;;10.13;5.15;;;13.30;99.90;;;;;;5072279;28;20400;-75
2022/01/01 12:28:12;;;;;;;10.30;4.90;;;13.30;99.90;;;;;;5072501;28;20044;-75
2022/01/01 12:30:46;;;;;;;8.93;3.85;;;13.30;99.90;;;;;;5072990;28;20500;-74
2022/01/01 12:33:52;;;;;;;9.38;4.78;;;13.30;99.90;;;;;;5069877;28;20036;-76
2022/01/01 12:36:23;;;;;;;10.32;4.93;;;13.30;99.90;;;;;;5054201;28;20060;-76
2022/01/01 12:38:54;;;;;;;6.47;4.72;;;13.30;99.90;;;;;;5055001;28;20066;-76